Time,TemperatureF,DewpointF,PressureIn,WindDirection,WindDirectionDegrees,WindSpeedMPH,WindSpeedGustMPH,Humidity,HourlyPrecipIn,Conditions,Clouds,dailyrainin,SolarRadiationWatts/m^2,SoftwareType,DateUTC
2013-02-28 00:03:00,24.0,9.0,-100.00,North,352,3.0,6.0,51,0.00,,,0.00,0.000000,,2013-02-28 09:03:00,
2013-02-28 00:11:00,24.0,9.0,-100.00,North,352,3.0,6.0,51,0.00,,,0.00,0.000000,,2013-02-28 09:11:00,
2013-02-28 00:21:00,24.0,9.0,-100.00,North,352,3.0,6.0,51,0.00,,,0.00,0.000000,,2013-02-28 09:21:00,
2013-02-28 00:31:00,24.0,9.0,-100.00,North,352,3.0,6.0,51,0.00,,,0.00,0.000000,,2013-02-28 09:31:00,
2013-02-28 00:52:00,23.0,9.0,-100.00,WSW,242,2.0,4.0,55,0.00,,,0.00,0.000000,,2013-02-28 09:52:00,
2013-02-28 01:01:00,23.0,9.0,-100.00,WSW,242,2.0,4.0,55,0.00,,,0.00,0.000000,,2013-02-28 10:01:00,
2013-02-28 01:11:00,23.0,9.0,-100.00,WSW,242,2.0,4.0,55,0.00,,,0.00,0.000000,,2013-02-28 10:11:00,
2013-02-28 01:21:00,23.0,9.0,-100.00,WSW,242,2.0,4.0,55,0.00,,,0.00,0.000000,,2013-02-28 10:21:00,
2013-02-28 01:31:00,23.0,9.0,-100.00,WSW,242,2.0,4.0,55,0.00,,,0.00,0.000000,,2013-02-28 10:31:00,
2013-02-28 01:52:00,25.0,7.0,-100.00,NNW,347,4.0,11.0,46,0.00,,,-99.99,0.000000,,2013-02-28 10:52:00,
2013-02-28 02:01:00,25.0,7.0,-100.00,NNW,347,4.0,11.0,46,0.00,,,-99.99,0.000000,,2013-02-28 11:01:00,
2013-02-28 02:11:00,25.0,7.0,-100.00,NNW,347,4.0,11.0,46,0.00,,,-99.99,0.000000,,2013-02-28 11:11:00,
2013-02-28 02:21:00,25.0,7.0,-100.00,NNW,347,4.0,11.0,46,0.00,,,-99.99,0.000000,,2013-02-28 11:21:00,
2013-02-28 02:31:00,25.0,7.0,-100.00,NNW,347,4.0,11.0,46,0.00,,,-99.99,0.000000,,2013-02-28 11:31:00,
2013-02-28 02:52:00,25.0,9.0,-100.00,NW,317,8.0,17.0,49,0.00,,,0.00,0.000000,,2013-02-28 11:52:00,
2013-02-28 03:01:00,25.0,9.0,-100.00,NW,317,8.0,17.0,49,0.00,,,0.00,0.000000,,2013-02-28 12:01:00,
2013-02-28 03:11:00,25.0,9.0,-100.00,NW,317,8.0,17.0,49,0.00,,,0.00,0.000000,,2013-02-28 12:11:00,
2013-02-28 03:21:00,25.0,9.0,-100.00,NW,317,8.0,17.0,49,0.00,,,0.00,0.000000,,2013-02-28 12:21:00,
2013-02-28 03:31:00,25.0,9.0,-100.00,NW,317,8.0,17.0,49,0.00,,,0.00,0.000000,,2013-02-28 12:31:00,
2013-02-28 03:52:00,26.0,8.0,-100.00,NW,320,4.0,10.0,46,0.00,,,0.00,0.000000,,2013-02-28 12:52:00,
2013-02-28 04:01:00,26.0,8.0,-100.00,NW,320,4.0,10.0,46,0.00,,,0.00,0.000000,,2013-02-28 13:01:00,
2013-02-28 04:11:00,26.0,8.0,-100.00,NW,320,4.0,10.0,46,0.00,,,0.00,0.000000,,2013-02-28 13:11:00,
2013-02-28 04:21:00,26.0,8.0,-100.00,NW,320,4.0,10.0,46,0.00,,,0.00,0.000000,,2013-02-28 13:21:00,
2013-02-28 04:31:00,26.0,8.0,-100.00,NW,320,4.0,10.0,46,0.00,,,0.00,0.000000,,2013-02-28 13:31:00,
2013-02-28 04:52:00,27.0,5.0,-100.00,North,2,3.0,6.0,39,0.00,,,0.00,0.000000,,2013-02-28 13:52:00,
2013-02-28 05:01:00,27.0,5.0,-100.00,North,2,3.0,6.0,39,0.00,,,0.00,0.000000,,2013-02-28 14:01:00,
2013-02-28 05:11:00,27.0,5.0,-100.00,North,2,3.0,6.0,39,0.00,,,0.00,0.000000,,2013-02-28 14:11:00,
2013-02-28 05:21:00,27.0,5.0,-100.00,North,2,3.0,6.0,39,0.00,,,0.00,0.000000,,2013-02-28 14:21:00,
2013-02-28 05:31:00,27.0,5.0,-100.00,North,2,3.0,6.0,39,0.00,,,0.00,0.000000,,2013-02-28 14:31:00,
2013-02-28 05:52:00,27.0,6.0,-100.00,NNE,19,4.0,9.0,40,0.00,,,-99.99,0.000000,,2013-02-28 14:52:00,
2013-02-28 06:02:00,27.0,6.0,-100.00,NNE,19,4.0,9.0,40,0.00,,,-99.99,0.000000,,2013-02-28 15:02:00,
2013-02-28 06:11:00,27.0,6.0,-100.00,NNE,19,4.0,9.0,40,0.00,,,-99.99,0.000000,,2013-02-28 15:11:00,
2013-02-28 06:21:00,27.0,6.0,-100.00,NNE,19,4.0,9.0,40,0.00,,,-99.99,0.000000,,2013-02-28 15:21:00,
2013-02-28 06:31:00,27.0,6.0,-100.00,NNE,19,4.0,9.0,40,0.00,,,-99.99,0.000000,,2013-02-28 15:31:00,
2013-02-28 06:52:00,27.0,8.0,-100.00,WNW,285,6.0,9.0,43,0.00,,,-99.99,0.000000,,2013-02-28 15:52:00,
2013-02-28 07:01:00,27.0,8.0,-100.00,WNW,285,6.0,9.0,43,0.00,,,-99.99,0.000000,,2013-02-28 16:01:00,
2013-02-28 07:11:00,27.0,8.0,-100.00,WNW,285,6.0,9.0,43,0.00,,,-99.99,0.000000,,2013-02-28 16:11:00,
2013-02-28 07:21:00,27.0,8.0,-100.00,WNW,285,6.0,9.0,43,0.00,,,-99.99,0.000000,,2013-02-28 16:21:00,
2013-02-28 07:31:00,27.0,8.0,-100.00,WNW,285,6.0,9.0,43,0.00,,,-99.99,0.000000,,2013-02-28 16:31:00,
2013-02-28 07:52:00,27.0,8.0,-100.00,NW,308,5.0,8.0,44,0.00,,,0.00,0.000000,,2013-02-28 16:52:00,
2013-02-28 08:01:00,27.0,8.0,-100.00,NW,308,5.0,8.0,44,0.00,,,0.00,0.000000,,2013-02-28 17:01:00,
2013-02-28 08:11:00,27.0,8.0,-100.00,NW,308,5.0,8.0,44,0.00,,,0.00,0.000000,,2013-02-28 17:11:00,
2013-02-28 08:21:00,27.0,8.0,-100.00,NW,308,5.0,8.0,44,0.00,,,0.00,0.000000,,2013-02-28 17:21:00,
2013-02-28 08:32:00,27.0,8.0,-100.00,NW,308,5.0,8.0,44,0.00,,,0.00,0.000000,,2013-02-28 17:32:00,
2013-02-28 08:52:00,27.0,9.0,-100.00,NW,316,3.0,6.0,45,0.00,,,-99.99,12.000000,,2013-02-28 17:52:00,
2013-02-28 09:02:00,27.0,9.0,-100.00,NW,316,3.0,6.0,45,0.00,,,-99.99,12.000000,,2013-02-28 18:02:00,
2013-02-28 09:11:00,27.0,9.0,-100.00,NW,316,3.0,6.0,45,0.00,,,-99.99,12.000000,,2013-02-28 18:11:00,
2013-02-28 09:21:00,27.0,9.0,-100.00,NW,316,3.0,6.0,45,0.00,,,-99.99,12.000000,,2013-02-28 18:21:00,
2013-02-28 09:31:00,27.0,9.0,-100.00,NW,316,3.0,6.0,45,0.00,,,-99.99,12.000000,,2013-02-28 18:31:00,
2013-02-28 09:52:00,26.0,9.0,-100.00,West,276,3.0,8.0,47,0.00,,,0.00,84.000000,,2013-02-28 18:52:00,
2013-02-28 10:01:00,26.0,9.0,-100.00,West,276,3.0,8.0,47,0.00,,,0.00,84.000000,,2013-02-28 19:01:00,
2013-02-28 10:11:00,26.0,9.0,-100.00,West,276,3.0,8.0,47,0.00,,,0.00,84.000000,,2013-02-28 19:11:00,
2013-02-28 10:21:00,26.0,9.0,-100.00,West,276,3.0,8.0,47,0.00,,,0.00,84.000000,,2013-02-28 19:21:00,
2013-02-28 10:31:00,26.0,9.0,-100.00,West,276,3.0,8.0,47,0.00,,,0.00,84.000000,,2013-02-28 19:31:00,
2013-02-28 10:52:00,27.0,9.0,-100.00,NNW,334,3.0,5.0,45,0.00,,,0.00,159.000000,,2013-02-28 19:52:00,
2013-02-28 11:01:00,27.0,9.0,-100.00,NNW,334,3.0,5.0,45,0.00,,,0.00,159.000000,,2013-02-28 20:01:00,
2013-02-28 11:11:00,27.0,9.0,-100.00,NNW,334,3.0,5.0,45,0.00,,,0.00,159.000000,,2013-02-28 20:11:00,
2013-02-28 11:21:00,27.0,9.0,-100.00,NNW,334,3.0,5.0,45,0.00,,,0.00,159.000000,,2013-02-28 20:21:00,
2013-02-28 11:31:00,27.0,9.0,-100.00,NNW,334,3.0,5.0,45,0.00,,,0.00,159.000000,,2013-02-28 20:31:00,
2013-02-28 11:52:00,28.0,9.0,-100.00,North,3,3.0,8.0,45,0.00,,,0.00,341.000000,,2013-02-28 20:52:00,
2013-02-28 12:01:00,28.0,9.0,-100.00,North,3,3.0,8.0,45,0.00,,,0.00,341.000000,,2013-02-28 21:01:00,
2013-02-28 12:11:00,28.0,9.0,-100.00,North,3,3.0,8.0,45,0.00,,,0.00,341.000000,,2013-02-28 21:11:00,
2013-02-28 12:22:00,28.0,9.0,-100.00,North,3,3.0,8.0,45,0.00,,,0.00,341.000000,,2013-02-28 21:22:00,
2013-02-28 12:31:00,28.0,9.0,-100.00,North,3,3.0,8.0,45,0.00,,,0.00,341.000000,,2013-02-28 21:31:00,
2013-02-28 12:52:00,28.0,9.0,-100.00,WSW,250,4.0,7.0,44,0.00,,,0.00,277.000000,,2013-02-28 21:52:00,
2013-02-28 13:01:00,28.0,9.0,-100.00,WSW,250,4.0,7.0,44,0.00,,,0.00,277.000000,,2013-02-28 22:01:00,
2013-02-28 13:11:00,28.0,9.0,-100.00,WSW,250,4.0,7.0,44,0.00,,,0.00,277.000000,,2013-02-28 22:11:00,
2013-02-28 13:21:00,28.0,9.0,-100.00,WSW,250,4.0,7.0,44,0.00,,,0.00,277.000000,,2013-02-28 22:21:00,
2013-02-28 13:31:00,28.0,9.0,-100.00,WSW,250,4.0,7.0,44,0.00,,,0.00,277.000000,,2013-02-28 22:31:00,
2013-02-28 13:52:00,26.0,9.0,-100.00,WNW,296,4.0,7.0,48,0.00,,,0.00,217.000000,,2013-02-28 22:52:00,
2013-02-28 14:01:00,26.0,9.0,-100.00,WNW,296,4.0,7.0,48,0.00,,,0.00,217.000000,,2013-02-28 23:01:00,
2013-02-28 14:11:00,26.0,9.0,-100.00,WNW,296,4.0,7.0,48,0.00,,,0.00,217.000000,,2013-02-28 23:11:00,
2013-02-28 14:21:00,26.0,9.0,-100.00,WNW,296,4.0,7.0,48,0.00,,,0.00,217.000000,,2013-02-28 23:21:00,
2013-02-28 14:31:00,26.0,9.0,-100.00,WNW,296,4.0,7.0,48,0.00,,,0.00,217.000000,,2013-02-28 23:31:00,
2013-02-28 14:53:00,27.0,7.0,-100.00,NW,311,5.0,19.0,42,0.00,,,0.00,192.000000,,2013-02-28 23:53:00,
2013-02-28 15:01:00,27.0,7.0,-100.00,NW,311,5.0,19.0,42,0.00,,,0.00,192.000000,,2013-03-01 00:01:00,
2013-02-28 15:11:00,27.0,7.0,-100.00,NW,311,5.0,19.0,42,0.00,,,0.00,192.000000,,2013-03-01 00:11:00,
2013-02-28 15:22:00,27.0,7.0,-100.00,NW,311,5.0,19.0,42,0.00,,,0.00,192.000000,,2013-03-01 00:22:00,
2013-02-28 15:32:00,27.0,7.0,-100.00,NW,311,5.0,19.0,42,0.00,,,0.00,192.000000,,2013-03-01 00:32:00,
2013-02-28 15:52:00,25.0,9.0,-100.00,NW,309,5.0,11.0,50,0.00,,,0.00,141.000000,,2013-03-01 00:52:00,
2013-02-28 16:01:00,25.0,9.0,-100.00,NW,309,5.0,11.0,50,0.00,,,0.00,141.000000,,2013-03-01 01:01:00,
2013-02-28 16:11:00,25.0,9.0,-100.00,NW,309,5.0,11.0,50,0.00,,,0.00,141.000000,,2013-03-01 01:11:00,
2013-02-28 16:21:00,25.0,9.0,-100.00,NW,309,5.0,11.0,50,0.00,,,0.00,141.000000,,2013-03-01 01:21:00,
2013-02-28 16:31:00,25.0,9.0,-100.00,NW,309,5.0,11.0,50,0.00,,,0.00,141.000000,,2013-03-01 01:31:00,
2013-02-28 16:52:00,23.0,10.0,-100.00,WNW,296,5.0,11.0,57,0.00,,,0.00,87.000000,,2013-03-01 01:52:00,
2013-02-28 17:01:00,23.0,10.0,-100.00,WNW,296,5.0,11.0,57,0.00,,,0.00,87.000000,,2013-03-01 02:01:00,
2013-02-28 17:11:00,23.0,10.0,-100.00,WNW,296,5.0,11.0,57,0.00,,,0.00,87.000000,,2013-03-01 02:11:00,
2013-02-28 17:21:00,23.0,10.0,-100.00,WNW,296,5.0,11.0,57,0.00,,,0.00,87.000000,,2013-03-01 02:21:00,
2013-02-28 17:31:00,23.0,10.0,-100.00,WNW,296,5.0,11.0,57,0.00,,,0.00,87.000000,,2013-03-01 02:31:00,
2013-02-28 17:52:00,23.0,9.0,-100.00,West,271,3.0,6.0,55,0.00,,,0.00,26.000000,,2013-03-01 02:52:00,
2013-02-28 18:01:00,23.0,9.0,-100.00,West,271,3.0,6.0,55,0.00,,,0.00,26.000000,,2013-03-01 03:01:00,
2013-02-28 18:11:00,23.0,9.0,-100.00,West,271,3.0,6.0,55,0.00,,,0.00,26.000000,,2013-03-01 03:11:00,
2013-02-28 18:21:00,23.0,9.0,-100.00,West,271,3.0,6.0,55,0.00,,,0.00,26.000000,,2013-03-01 03:21:00,
2013-02-28 18:32:00,23.0,9.0,-100.00,West,271,3.0,6.0,55,0.00,,,0.00,26.000000,,2013-03-01 03:32:00,
2013-02-28 18:52:00,23.0,8.0,-100.00,WNW,293,3.0,7.0,51,0.00,,,0.00,1.000000,,2013-03-01 03:52:00,
2013-02-28 19:01:00,23.0,8.0,-100.00,WNW,293,3.0,7.0,51,0.00,,,0.00,1.000000,,2013-03-01 04:01:00,
2013-02-28 19:11:00,23.0,8.0,-100.00,WNW,293,3.0,7.0,51,0.00,,,0.00,1.000000,,2013-03-01 04:11:00,
2013-02-28 19:21:00,23.0,8.0,-100.00,WNW,293,3.0,7.0,51,0.00,,,0.00,1.000000,,2013-03-01 04:21:00,
2013-02-28 19:31:00,23.0,8.0,-100.00,WNW,293,3.0,7.0,51,0.00,,,0.00,1.000000,,2013-03-01 04:31:00,
2013-02-28 19:52:00,23.0,8.0,-100.00,West,281,3.0,7.0,51,0.00,,,0.00,0.000000,,2013-03-01 04:52:00,
2013-02-28 20:02:00,23.0,8.0,-100.00,West,281,3.0,7.0,51,0.00,,,0.00,0.000000,,2013-03-01 05:02:00,
2013-02-28 20:11:00,23.0,8.0,-100.00,West,281,3.0,7.0,51,0.00,,,0.00,0.000000,,2013-03-01 05:11:00,
2013-02-28 20:22:00,23.0,8.0,-100.00,West,281,3.0,7.0,51,0.00,,,0.00,0.000000,,2013-03-01 05:22:00,
2013-02-28 20:32:00,23.0,8.0,-100.00,West,281,3.0,7.0,51,0.00,,,0.00,0.000000,,2013-03-01 05:32:00,
2013-02-28 20:52:00,19.0,10.0,-100.00,NNW,340,3.0,7.0,66,0.00,,,0.00,0.000000,,2013-03-01 05:52:00,
2013-02-28 21:02:00,19.0,10.0,-100.00,NNW,340,3.0,7.0,66,0.00,,,0.00,0.000000,,2013-03-01 06:02:00,
2013-02-28 21:11:00,19.0,10.0,-100.00,NNW,340,3.0,7.0,66,0.00,,,0.00,0.000000,,2013-03-01 06:11:00,
2013-02-28 21:21:00,19.0,10.0,-100.00,NNW,340,3.0,7.0,66,0.00,,,0.00,0.000000,,2013-03-01 06:21:00,
2013-02-28 21:31:00,19.0,10.0,-100.00,NNW,340,3.0,7.0,66,0.00,,,0.00,0.000000,,2013-03-01 06:31:00,
2013-02-28 21:52:00,20.0,9.0,-100.00,WNW,291,4.0,10.0,61,0.00,,,0.00,0.000000,,2013-03-01 06:52:00,
2013-02-28 22:01:00,20.0,9.0,-100.00,WNW,291,4.0,10.0,61,0.00,,,0.00,0.000000,,2013-03-01 07:01:00,
2013-02-28 22:11:00,20.0,9.0,-100.00,WNW,291,4.0,10.0,61,0.00,,,0.00,0.000000,,2013-03-01 07:11:00,
2013-02-28 22:21:00,20.0,9.0,-100.00,WNW,291,4.0,10.0,61,0.00,,,0.00,0.000000,,2013-03-01 07:21:00,
2013-02-28 22:31:00,20.0,9.0,-100.00,WNW,291,4.0,10.0,61,0.00,,,0.00,0.000000,,2013-03-01 07:31:00,
2013-02-28 22:52:00,22.0,8.0,-100.00,North,349,5.0,8.0,54,0.00,,,-99.99,0.000000,,2013-03-01 07:52:00,
2013-02-28 23:01:00,22.0,8.0,-100.00,North,349,5.0,8.0,54,0.00,,,-99.99,0.000000,,2013-03-01 08:01:00,
2013-02-28 23:11:00,22.0,8.0,-100.00,North,349,5.0,8.0,54,0.00,,,-99.99,0.000000,,2013-03-01 08:11:00,
2013-02-28 23:22:00,22.0,8.0,-100.00,North,349,5.0,8.0,54,0.00,,,-99.99,0.000000,,2013-03-01 08:22:00,
2013-02-28 23:31:00,22.0,8.0,-100.00,North,349,5.0,8.0,54,0.00,,,-99.99,0.000000,,2013-03-01 08:31:00,
2013-02-28 23:53:00,21.0,8.0,-100.00,NW,319,8.0,16.0,56,0.00,,,0.00,0.000000,,2013-03-01 08:53:00,